sensor_id;sensor_type;location;lat;lon;timestamp;P1;durP1;ratioP1;P2;durP2;ratioP2
73693;SDS011;61997;53.974;11.670;2023-05-10T00:00:52;5.68;;;3.88;;
73693;SDS011;61997;53.974;11.670;2023-05-10T00:03:17;6.10;;;4.28;;
73693;SDS011;61997;53.974;11.670;2023-05-10T00:05:43;6.10;;;4.00;;
73693;SDS011;61997;53.974;11.670;2023-05-10T00:08:08;5.53;;;4.15;;
73693;SDS011;61997;53.974;11.670;2023-05-10T00:10:35;5.57;;;3.90;;
73693;SDS011;61997;53.974;11.670;2023-05-10T00:13:02;5.60;;;4.25;;
73693;SDS011;61997;53.974;11.670;2023-05-10T00:15:27;5.82;;;4.45;;
73693;SDS011;61997;53.974;11.670;2023-05-10T00:17:55;5.38;;;3.67;;
73693;SDS011;61997;53.974;11.670;2023-05-10T00:20:21;5.65;;;3.88;;
73693;SDS011;61997;53.974;11.670;2023-05-10T00:22:47;8.30;;;4.20;;
73693;SDS011;61997;53.974;11.670;2023-05-10T00:25:12;4.85;;;4.00;;
73693;SDS011;61997;53.974;11.670;2023-05-10T00:27:37;5.85;;;4.03;;
73693;SDS011;61997;53.974;11.670;2023-05-10T00:30:03;5.60;;;4.20;;
73693;SDS011;61997;53.974;11.670;2023-05-10T00:32:29;4.97;;;3.88;;
73693;SDS011;61997;53.974;11.670;2023-05-10T00:34:54;5.85;;;3.70;;
73693;SDS011;61997;53.974;11.670;2023-05-10T00:37:21;5.88;;;3.92;;
73693;SDS011;61997;53.974;11.670;2023-05-10T00:39:46;6.28;;;3.85;;
73693;SDS011;61997;53.974;11.670;2023-05-10T00:42:12;5.65;;;3.90;;
73693;SDS011;61997;53.974;11.670;2023-05-10T00:44:39;6.63;;;3.70;;
73693;SDS011;61997;53.974;11.670;2023-05-10T00:47:04;6.22;;;3.72;;
73693;SDS011;61997;53.974;11.670;2023-05-10T00:49:30;5.13;;;4.07;;
73693;SDS011;61997;53.974;11.670;2023-05-10T00:51:56;4.45;;;3.70;;
73693;SDS011;61997;53.974;11.670;2023-05-10T00:54:22;5.05;;;4.30;;
73693;SDS011;61997;53.974;11.670;2023-05-10T00:56:49;5.55;;;3.60;;
73693;SDS011;61997;53.974;11.670;2023-05-10T00:59:16;6.07;;;4.00;;
73693;SDS011;61997;53.974;11.670;2023-05-10T01:01:43;4.75;;;3.42;;
73693;SDS011;61997;53.974;11.670;2023-05-10T01:04:11;5.80;;;3.78;;
73693;SDS011;61997;53.974;11.670;2023-05-10T01:06:38;4.88;;;3.67;;
73693;SDS011;61997;53.974;11.670;2023-05-10T01:09:05;4.55;;;3.50;;
73693;SDS011;61997;53.974;11.670;2023-05-10T01:14:00;5.85;;;4.13;;
73693;SDS011;61997;53.974;11.670;2023-05-10T01:16:27;5.82;;;3.45;;
73693;SDS011;61997;53.974;11.670;2023-05-10T01:19:23;4.70;;;3.97;;
73693;SDS011;61997;53.974;11.670;2023-05-10T01:27:30;5.50;;;4.07;;
73693;SDS011;61997;53.974;11.670;2023-05-10T01:39:25;6.55;;;3.70;;
73693;SDS011;61997;53.974;11.670;2023-05-10T01:42:03;4.47;;;3.58;;
73693;SDS011;61997;53.974;11.670;2023-05-10T01:44:37;5.93;;;3.85;;
73693;SDS011;61997;53.974;11.670;2023-05-10T01:47:09;4.82;;;3.40;;
73693;SDS011;61997;53.974;11.670;2023-05-10T01:49:39;4.90;;;3.80;;
73693;SDS011;61997;53.974;11.670;2023-05-10T01:52:15;5.07;;;3.40;;
73693;SDS011;61997;53.974;11.670;2023-05-10T01:57:43;6.22;;;3.67;;
73693;SDS011;61997;53.974;11.670;2023-05-10T02:00:10;4.50;;;3.40;;
73693;SDS011;61997;53.974;11.670;2023-05-10T02:02:38;4.75;;;3.83;;
73693;SDS011;61997;53.974;11.670;2023-05-10T02:05:05;4.30;;;3.35;;
73693;SDS011;61997;53.974;11.670;2023-05-10T02:07:31;4.75;;;3.60;;
73693;SDS011;61997;53.974;11.670;2023-05-10T02:10:00;5.45;;;3.85;;
73693;SDS011;61997;53.974;11.670;2023-05-10T02:12:26;4.28;;;3.50;;
73693;SDS011;61997;53.974;11.670;2023-05-10T02:14:53;4.07;;;3.00;;
73693;SDS011;61997;53.974;11.670;2023-05-10T02:17:19;5.57;;;3.72;;
73693;SDS011;61997;53.974;11.670;2023-05-10T02:19:45;5.15;;;3.58;;
73693;SDS011;61997;53.974;11.670;2023-05-10T02:22:12;4.03;;;3.13;;
73693;SDS011;61997;53.974;11.670;2023-05-10T02:24:38;6.65;;;3.40;;
73693;SDS011;61997;53.974;11.670;2023-05-10T02:27:05;5.75;;;3.42;;
73693;SDS011;61997;53.974;11.670;2023-05-10T02:29:31;4.03;;;3.25;;
73693;SDS011;61997;53.974;11.670;2023-05-10T02:31:57;5.38;;;3.28;;
73693;SDS011;61997;53.974;11.670;2023-05-10T02:34:25;4.38;;;3.42;;
73693;SDS011;61997;53.974;11.670;2023-05-10T02:36:52;4.20;;;3.80;;
73693;SDS011;61997;53.974;11.670;2023-05-10T02:39:18;5.25;;;3.17;;
73693;SDS011;61997;53.974;11.670;2023-05-10T02:41:44;4.82;;;3.67;;
73693;SDS011;61997;53.974;11.670;2023-05-10T02:44:10;5.05;;;3.13;;
73693;SDS011;61997;53.974;11.670;2023-05-10T02:46:36;4.90;;;3.67;;
73693;SDS011;61997;53.974;11.670;2023-05-10T02:49:02;4.85;;;3.50;;
73693;SDS011;61997;53.974;11.670;2023-05-10T02:51:30;5.97;;;3.97;;
73693;SDS011;61997;53.974;11.670;2023-05-10T02:53:56;4.72;;;3.55;;
73693;SDS011;61997;53.974;11.670;2023-05-10T02:56:28;4.57;;;3.60;;
73693;SDS011;61997;53.974;11.670;2023-05-10T02:58:58;5.28;;;3.58;;
73693;SDS011;61997;53.974;11.670;2023-05-10T03:01:24;4.63;;;3.47;;
73693;SDS011;61997;53.974;11.670;2023-05-10T03:03:50;3.88;;;3.25;;
73693;SDS011;61997;53.974;11.670;2023-05-10T03:06:16;4.75;;;3.47;;
73693;SDS011;61997;53.974;11.670;2023-05-10T03:08:42;3.90;;;3.45;;
73693;SDS011;61997;53.974;11.670;2023-05-10T03:16:38;5.68;;;3.13;;
73693;SDS011;61997;53.974;11.670;2023-05-10T03:19:22;5.07;;;3.83;;
73693;SDS011;61997;53.974;11.670;2023-05-10T03:21:52;4.55;;;3.65;;
73693;SDS011;61997;53.974;11.670;2023-05-10T03:24:20;5.60;;;3.63;;
73693;SDS011;61997;53.974;11.670;2023-05-10T03:26:47;4.57;;;3.40;;
73693;SDS011;61997;53.974;11.670;2023-05-10T03:29:14;4.55;;;3.83;;
73693;SDS011;61997;53.974;11.670;2023-05-10T03:31:40;4.20;;;3.25;;
73693;SDS011;61997;53.974;11.670;2023-05-10T03:34:05;4.18;;;3.53;;
73693;SDS011;61997;53.974;11.670;2023-05-10T03:36:32;4.88;;;3.85;;
73693;SDS011;61997;53.974;11.670;2023-05-10T03:38:58;4.82;;;3.45;;
73693;SDS011;61997;53.974;11.670;2023-05-10T03:41:24;3.95;;;3.53;;
73693;SDS011;61997;53.974;11.670;2023-05-10T03:43:52;4.68;;;3.40;;
73693;SDS011;61997;53.974;11.670;2023-05-10T03:46:19;4.30;;;3.30;;
73693;SDS011;61997;53.974;11.670;2023-05-10T03:48:44;3.63;;;3.28;;
73693;SDS011;61997;53.974;11.670;2023-05-10T03:51:10;4.93;;;3.17;;
73693;SDS011;61997;53.974;11.670;2023-05-10T03:53:36;4.00;;;3.05;;
73693;SDS011;61997;53.974;11.670;2023-05-10T03:56:01;4.95;;;3.45;;
73693;SDS011;61997;53.974;11.670;2023-05-10T03:58:27;5.43;;;3.45;;
73693;SDS011;61997;53.974;11.670;2023-05-10T04:00:52;3.97;;;2.88;;
73693;SDS011;61997;53.974;11.670;2023-05-10T04:03:19;3.97;;;3.28;;
73693;SDS011;61997;53.974;11.670;2023-05-10T04:05:45;4.68;;;3.40;;
73693;SDS011;61997;53.974;11.670;2023-05-10T04:08:10;3.42;;;3.10;;
73693;SDS011;61997;53.974;11.670;2023-05-10T04:10:37;3.95;;;2.97;;
73693;SDS011;61997;53.974;11.670;2023-05-10T04:13:02;4.68;;;3.55;;
73693;SDS011;61997;53.974;11.670;2023-05-10T04:15:28;5.28;;;3.47;;
73693;SDS011;61997;53.974;11.670;2023-05-10T04:17:53;5.60;;;3.70;;
73693;SDS011;61997;53.974;11.670;2023-05-10T04:20:19;4.95;;;3.30;;
73693;SDS011;61997;53.974;11.670;2023-05-10T04:22:44;5.65;;;3.75;;
73693;SDS011;61997;53.974;11.670;2023-05-10T04:25:09;3.65;;;2.83;;
73693;SDS011;61997;53.974;11.670;2023-05-10T04:27:35;3.97;;;3.28;;
73693;SDS011;61997;53.974;11.670;2023-05-10T04:30:00;4.30;;;3.50;;
73693;SDS011;61997;53.974;11.670;2023-05-10T04:32:26;4.43;;;3.25;;
73693;SDS011;61997;53.974;11.670;2023-05-10T04:34:51;3.67;;;2.95;;
73693;SDS011;61997;53.974;11.670;2023-05-10T04:37:17;3.53;;;2.83;;
73693;SDS011;61997;53.974;11.670;2023-05-10T04:39:42;3.85;;;2.97;;
73693;SDS011;61997;53.974;11.670;2023-05-10T04:42:08;4.30;;;3.10;;
73693;SDS011;61997;53.974;11.670;2023-05-10T04:44:33;4.43;;;3.08;;
73693;SDS011;61997;53.974;11.670;2023-05-10T04:46:59;5.53;;;3.25;;
73693;SDS011;61997;53.974;11.670;2023-05-10T04:49:24;5.20;;;2.92;;
73693;SDS011;61997;53.974;11.670;2023-05-10T04:51:51;4.95;;;3.40;;
73693;SDS011;61997;53.974;11.670;2023-05-10T04:54:17;4.63;;;3.65;;
73693;SDS011;61997;53.974;11.670;2023-05-10T04:56:43;5.82;;;3.22;;
73693;SDS011;61997;53.974;11.670;2023-05-10T04:59:08;4.22;;;3.42;;
73693;SDS011;61997;53.974;11.670;2023-05-10T05:01:34;4.28;;;2.90;;
73693;SDS011;61997;53.974;11.670;2023-05-10T05:03:59;3.67;;;2.97;;
73693;SDS011;61997;53.974;11.670;2023-05-10T05:06:25;4.53;;;3.30;;
73693;SDS011;61997;53.974;11.670;2023-05-10T05:08:52;4.47;;;3.47;;
73693;SDS011;61997;53.974;11.670;2023-05-10T05:11:17;3.40;;;3.00;;
73693;SDS011;61997;53.974;11.670;2023-05-10T05:13:43;4.22;;;3.22;;
73693;SDS011;61997;53.974;11.670;2023-05-10T05:16:08;7.18;;;3.40;;
73693;SDS011;61997;53.974;11.670;2023-05-10T05:18:34;3.72;;;3.30;;
73693;SDS011;61997;53.974;11.670;2023-05-10T05:20:59;4.22;;;3.30;;
73693;SDS011;61997;53.974;11.670;2023-05-10T05:23:24;4.68;;;3.28;;
73693;SDS011;61997;53.974;11.670;2023-05-10T05:25:53;4.90;;;3.50;;
73693;SDS011;61997;53.974;11.670;2023-05-10T05:28:19;4.93;;;3.45;;
73693;SDS011;61997;53.974;11.670;2023-05-10T05:30:45;4.50;;;3.95;;
73693;SDS011;61997;53.974;11.670;2023-05-10T05:33:11;5.20;;;3.67;;
73693;SDS011;61997;53.974;11.670;2023-05-10T05:35:36;4.82;;;4.35;;
73693;SDS011;61997;53.974;11.670;2023-05-10T05:38:02;3.85;;;2.88;;
73693;SDS011;61997;53.974;11.670;2023-05-10T05:40:27;4.43;;;3.30;;
73693;SDS011;61997;53.974;11.670;2023-05-10T05:42:52;4.20;;;3.20;;
73693;SDS011;61997;53.974;11.670;2023-05-10T05:45:18;4.28;;;3.38;;
73693;SDS011;61997;53.974;11.670;2023-05-10T05:47:43;4.47;;;3.40;;
73693;SDS011;61997;53.974;11.670;2023-05-10T05:50:09;5.82;;;3.08;;
73693;SDS011;61997;53.974;11.670;2023-05-10T05:52:34;4.03;;;3.00;;
73693;SDS011;61997;53.974;11.670;2023-05-10T05:55:00;3.38;;;2.92;;
73693;SDS011;61997;53.974;11.670;2023-05-10T05:57:26;5.85;;;3.30;;
73693;SDS011;61997;53.974;11.670;2023-05-10T05:59:51;4.07;;;3.20;;
73693;SDS011;61997;53.974;11.670;2023-05-10T06:02:17;4.45;;;3.42;;
73693;SDS011;61997;53.974;11.670;2023-05-10T06:04:42;4.00;;;3.20;;
73693;SDS011;61997;53.974;11.670;2023-05-10T06:07:08;4.35;;;3.55;;
73693;SDS011;61997;53.974;11.670;2023-05-10T06:09:33;3.63;;;3.28;;
73693;SDS011;61997;53.974;11.670;2023-05-10T06:11:58;4.15;;;2.95;;
73693;SDS011;61997;53.974;11.670;2023-05-10T06:14:24;4.38;;;3.05;;
73693;SDS011;61997;53.974;11.670;2023-05-10T06:16:49;4.90;;;3.17;;
73693;SDS011;61997;53.974;11.670;2023-05-10T06:19:15;3.75;;;3.13;;
73693;SDS011;61997;53.974;11.670;2023-05-10T06:21:40;3.35;;;2.88;;
73693;SDS011;61997;53.974;11.670;2023-05-10T06:24:06;5.20;;;3.20;;
73693;SDS011;61997;53.974;11.670;2023-05-10T06:26:32;4.00;;;3.10;;
73693;SDS011;61997;53.974;11.670;2023-05-10T06:28:58;3.78;;;3.20;;
73693;SDS011;61997;53.974;11.670;2023-05-10T06:31:23;5.63;;;3.10;;
73693;SDS011;61997;53.974;11.670;2023-05-10T06:33:48;4.10;;;3.22;;
73693;SDS011;61997;53.974;11.670;2023-05-10T06:36:14;3.47;;;2.80;;
73693;SDS011;61997;53.974;11.670;2023-05-10T06:38:39;3.30;;;2.83;;
73693;SDS011;61997;53.974;11.670;2023-05-10T06:41:05;4.90;;;3.15;;
73693;SDS011;61997;53.974;11.670;2023-05-10T06:43:30;3.88;;;2.88;;
73693;SDS011;61997;53.974;11.670;2023-05-10T06:45:56;4.10;;;3.05;;
73693;SDS011;61997;53.974;11.670;2023-05-10T06:48:21;4.22;;;3.28;;
73693;SDS011;61997;53.974;11.670;2023-05-10T06:50:46;3.45;;;3.05;;
73693;SDS011;61997;53.974;11.670;2023-05-10T06:53:12;3.90;;;3.28;;
73693;SDS011;61997;53.974;11.670;2023-05-10T06:55:38;4.82;;;3.20;;
73693;SDS011;61997;53.974;11.670;2023-05-10T06:58:04;3.13;;;2.80;;
73693;SDS011;61997;53.974;11.670;2023-05-10T07:00:29;4.30;;;3.25;;
73693;SDS011;61997;53.974;11.670;2023-05-10T07:02:54;3.92;;;2.95;;
73693;SDS011;61997;53.974;11.670;2023-05-10T07:05:20;4.10;;;3.22;;
73693;SDS011;61997;53.974;11.670;2023-05-10T07:07:46;3.30;;;2.90;;
73693;SDS011;61997;53.974;11.670;2023-05-10T07:10:11;3.45;;;2.67;;
73693;SDS011;61997;53.974;11.670;2023-05-10T07:12:36;4.38;;;2.92;;
73693;SDS011;61997;53.974;11.670;2023-05-10T07:15:03;4.75;;;3.15;;
73693;SDS011;61997;53.974;11.670;2023-05-10T07:17:29;4.40;;;2.95;;
73693;SDS011;61997;53.974;11.670;2023-05-10T07:19:54;4.47;;;3.03;;
73693;SDS011;61997;53.974;11.670;2023-05-10T07:22:20;4.82;;;3.38;;
73693;SDS011;61997;53.974;11.670;2023-05-10T07:24:45;4.63;;;2.88;;
73693;SDS011;61997;53.974;11.670;2023-05-10T07:27:11;4.32;;;3.15;;
73693;SDS011;61997;53.974;11.670;2023-05-10T07:29:36;4.90;;;2.97;;
73693;SDS011;61997;53.974;11.670;2023-05-10T07:32:02;4.85;;;3.17;;
73693;SDS011;61997;53.974;11.670;2023-05-10T07:34:28;4.15;;;3.00;;
73693;SDS011;61997;53.974;11.670;2023-05-10T07:36:55;3.72;;;2.83;;
73693;SDS011;61997;53.974;11.670;2023-05-10T07:39:20;4.20;;;3.00;;
73693;SDS011;61997;53.974;11.670;2023-05-10T07:41:46;3.83;;;3.00;;
73693;SDS011;61997;53.974;11.670;2023-05-10T07:44:11;4.75;;;3.35;;
73693;SDS011;61997;53.974;11.670;2023-05-10T07:46:37;3.60;;;2.78;;
73693;SDS011;61997;53.974;11.670;2023-05-10T07:49:03;3.95;;;2.58;;
73693;SDS011;61997;53.974;11.670;2023-05-10T07:51:29;4.50;;;3.08;;
73693;SDS011;61997;53.974;11.670;2023-05-10T07:53:54;4.32;;;3.25;;
73693;SDS011;61997;53.974;11.670;2023-05-10T07:56:27;3.42;;;2.50;;
73693;SDS011;61997;53.974;11.670;2023-05-10T07:59:01;4.78;;;2.80;;
73693;SDS011;61997;53.974;11.670;2023-05-10T08:01:32;3.75;;;2.85;;
73693;SDS011;61997;53.974;11.670;2023-05-10T08:03:58;5.03;;;2.85;;
73693;SDS011;61997;53.974;11.670;2023-05-10T08:06:25;3.55;;;2.40;;
73693;SDS011;61997;53.974;11.670;2023-05-10T08:08:53;3.47;;;2.78;;
73693;SDS011;61997;53.974;11.670;2023-05-10T08:11:19;3.63;;;2.55;;
73693;SDS011;61997;53.974;11.670;2023-05-10T08:13:45;4.45;;;2.70;;
73693;SDS011;61997;53.974;11.670;2023-05-10T08:16:13;3.45;;;2.50;;
73693;SDS011;61997;53.974;11.670;2023-05-10T08:18:42;4.30;;;2.90;;
73693;SDS011;61997;53.974;11.670;2023-05-10T08:21:08;3.38;;;2.60;;
73693;SDS011;61997;53.974;11.670;2023-05-10T08:23:35;3.85;;;2.70;;
73693;SDS011;61997;53.974;11.670;2023-05-10T08:26:01;4.22;;;2.50;;
73693;SDS011;61997;53.974;11.670;2023-05-10T08:28:26;3.67;;;2.53;;
73693;SDS011;61997;53.974;11.670;2023-05-10T08:30:54;4.80;;;2.95;;
73693;SDS011;61997;53.974;11.670;2023-05-10T08:33:21;4.18;;;2.70;;
73693;SDS011;61997;53.974;11.670;2023-05-10T08:35:47;3.80;;;2.60;;
73693;SDS011;61997;53.974;11.670;2023-05-10T08:38:12;3.10;;;2.35;;
73693;SDS011;61997;53.974;11.670;2023-05-10T08:40:38;3.28;;;2.47;;
73693;SDS011;61997;53.974;11.670;2023-05-10T08:43:07;3.55;;;2.55;;
73693;SDS011;61997;53.974;11.670;2023-05-10T08:48:05;2.78;;;2.40;;
73693;SDS011;61997;53.974;11.670;2023-05-10T08:50:31;3.10;;;2.25;;
73693;SDS011;61997;53.974;11.670;2023-05-10T08:52:57;3.42;;;2.63;;
73693;SDS011;61997;53.974;11.670;2023-05-10T08:55:26;3.60;;;2.40;;
73693;SDS011;61997;53.974;11.670;2023-05-10T08:57:52;3.40;;;2.47;;
73693;SDS011;61997;53.974;11.670;2023-05-10T09:00:17;3.17;;;2.50;;
73693;SDS011;61997;53.974;11.670;2023-05-10T09:02:43;3.80;;;2.40;;
73693;SDS011;61997;53.974;11.670;2023-05-10T09:05:14;3.63;;;2.90;;
73693;SDS011;61997;53.974;11.670;2023-05-10T09:07:41;3.72;;;2.63;;
73693;SDS011;61997;53.974;11.670;2023-05-10T09:10:07;3.38;;;2.22;;
73693;SDS011;61997;53.974;11.670;2023-05-10T09:12:35;4.00;;;2.83;;
73693;SDS011;61997;53.974;11.670;2023-05-10T09:15:01;4.60;;;3.20;;
73693;SDS011;61997;53.974;11.670;2023-05-10T09:17:29;3.40;;;2.50;;
73693;SDS011;61997;53.974;11.670;2023-05-10T09:20:01;3.28;;;2.88;;
73693;SDS011;61997;53.974;11.670;2023-05-10T09:22:31;2.92;;;2.28;;
73693;SDS011;61997;53.974;11.670;2023-05-10T09:25:30;3.70;;;2.38;;
73693;SDS011;61997;53.974;11.670;2023-05-10T09:27:49;3.63;;;2.35;;
73693;SDS011;61997;53.974;11.670;2023-05-10T09:30:30;3.63;;;2.83;;
73693;SDS011;61997;53.974;11.670;2023-05-10T09:32:57;3.08;;;2.50;;
73693;SDS011;61997;53.974;11.670;2023-05-10T09:35:24;3.00;;;2.40;;
73693;SDS011;61997;53.974;11.670;2023-05-10T09:37:53;3.78;;;2.47;;
73693;SDS011;61997;53.974;11.670;2023-05-10T09:40:21;2.95;;;2.33;;
73693;SDS011;61997;53.974;11.670;2023-05-10T09:43:09;3.10;;;2.75;;
73693;SDS011;61997;53.974;11.670;2023-05-10T09:45:35;4.30;;;3.15;;
73693;SDS011;61997;53.974;11.670;2023-05-10T09:48:01;2.55;;;2.35;;
73693;SDS011;61997;53.974;11.670;2023-05-10T09:50:28;3.30;;;2.38;;
73693;SDS011;61997;53.974;11.670;2023-05-10T09:52:57;3.45;;;2.33;;
73693;SDS011;61997;53.974;11.670;2023-05-10T09:55:25;2.22;;;1.88;;
73693;SDS011;61997;53.974;11.670;2023-05-10T09:58:03;3.40;;;2.53;;
73693;SDS011;61997;53.974;11.670;2023-05-10T10:00:35;3.55;;;2.25;;
73693;SDS011;61997;53.974;11.670;2023-05-10T10:03:03;2.65;;;2.20;;
73693;SDS011;61997;53.974;11.670;2023-05-10T10:05:32;3.35;;;2.60;;
73693;SDS011;61997;53.974;11.670;2023-05-10T10:08:00;2.88;;;2.38;;
73693;SDS011;61997;53.974;11.670;2023-05-10T10:10:27;3.25;;;2.70;;
73693;SDS011;61997;53.974;11.670;2023-05-10T10:12:53;2.80;;;2.30;;
73693;SDS011;61997;53.974;11.670;2023-05-10T10:15:20;4.32;;;2.65;;
73693;SDS011;61997;53.974;11.670;2023-05-10T10:17:46;3.40;;;2.33;;
73693;SDS011;61997;53.974;11.670;2023-05-10T10:20:11;4.25;;;2.47;;
73693;SDS011;61997;53.974;11.670;2023-05-10T10:22:37;2.80;;;2.40;;
73693;SDS011;61997;53.974;11.670;2023-05-10T10:25:03;3.10;;;2.42;;
73693;SDS011;61997;53.974;11.670;2023-05-10T10:27:42;3.20;;;2.60;;
73693;SDS011;61997;53.974;11.670;2023-05-10T10:30:15;2.58;;;2.13;;
73693;SDS011;61997;53.974;11.670;2023-05-10T10:35:22;3.60;;;2.67;;
73693;SDS011;61997;53.974;11.670;2023-05-10T10:37:48;2.95;;;2.33;;
73693;SDS011;61997;53.974;11.670;2023-05-10T10:40:25;2.97;;;2.33;;
73693;SDS011;61997;53.974;11.670;2023-05-10T10:42:54;2.63;;;2.10;;
73693;SDS011;61997;53.974;11.670;2023-05-10T10:45:21;3.25;;;2.70;;
73693;SDS011;61997;53.974;11.670;2023-05-10T10:47:47;3.15;;;2.42;;
73693;SDS011;61997;53.974;11.670;2023-05-10T10:50:13;3.00;;;2.20;;
73693;SDS011;61997;53.974;11.670;2023-05-10T10:52:42;3.72;;;2.75;;
73693;SDS011;61997;53.974;11.670;2023-05-10T10:57:51;2.90;;;2.17;;
73693;SDS011;61997;53.974;11.670;2023-05-10T11:00:37;2.72;;;2.30;;
73693;SDS011;61997;53.974;11.670;2023-05-10T11:05:35;3.53;;;2.50;;
73693;SDS011;61997;53.974;11.670;2023-05-10T11:10:33;2.95;;;2.45;;
73693;SDS011;61997;53.974;11.670;2023-05-10T11:13:02;2.70;;;2.13;;
73693;SDS011;61997;53.974;11.670;2023-05-10T11:15:33;3.83;;;2.47;;
73693;SDS011;61997;53.974;11.670;2023-05-10T11:18:19;3.05;;;2.60;;
73693;SDS011;61997;53.974;11.670;2023-05-10T11:21:08;3.13;;;2.20;;
73693;SDS011;61997;53.974;11.670;2023-05-10T11:26:21;3.17;;;2.33;;
73693;SDS011;61997;53.974;11.670;2023-05-10T11:28:52;3.30;;;2.55;;
73693;SDS011;61997;53.974;11.670;2023-05-10T11:31:20;5.35;;;2.80;;
73693;SDS011;61997;53.974;11.670;2023-05-10T11:33:53;3.15;;;2.53;;
73693;SDS011;61997;53.974;11.670;2023-05-10T11:36:32;3.38;;;2.38;;
73693;SDS011;61997;53.974;11.670;2023-05-10T11:39:01;2.70;;;2.40;;
73693;SDS011;61997;53.974;11.670;2023-05-10T11:41:30;3.33;;;2.50;;
73693;SDS011;61997;53.974;11.670;2023-05-10T11:44:02;3.08;;;2.17;;
73693;SDS011;61997;53.974;11.670;2023-05-10T11:46:28;3.28;;;2.38;;
73693;SDS011;61997;53.974;11.670;2023-05-10T11:48:55;2.42;;;2.15;;
73693;SDS011;61997;53.974;11.670;2023-05-10T11:51:26;4.28;;;2.80;;
73693;SDS011;61997;53.974;11.670;2023-05-10T11:53:53;2.53;;;2.33;;
73693;SDS011;61997;53.974;11.670;2023-05-10T11:56:21;3.42;;;2.80;;
73693;SDS011;61997;53.974;11.670;2023-05-10T11:58:52;3.28;;;2.35;;
73693;SDS011;61997;53.974;11.670;2023-05-10T12:01:19;3.50;;;2.67;;
73693;SDS011;61997;53.974;11.670;2023-05-10T12:03:45;2.72;;;2.30;;
73693;SDS011;61997;53.974;11.670;2023-05-10T12:06:11;3.25;;;2.35;;
73693;SDS011;61997;53.974;11.670;2023-05-10T12:08:43;2.60;;;2.30;;
73693;SDS011;61997;53.974;11.670;2023-05-10T12:11:10;2.55;;;2.35;;
73693;SDS011;61997;53.974;11.670;2023-05-10T12:13:39;3.20;;;2.42;;
73693;SDS011;61997;53.974;11.670;2023-05-10T12:16:21;3.03;;;2.20;;
73693;SDS011;61997;53.974;11.670;2023-05-10T12:18:48;3.30;;;2.20;;
73693;SDS011;61997;53.974;11.670;2023-05-10T12:21:14;2.45;;;1.92;;
73693;SDS011;61997;53.974;11.670;2023-05-10T12:23:40;3.30;;;2.40;;
73693;SDS011;61997;53.974;11.670;2023-05-10T12:26:11;3.22;;;2.58;;
73693;SDS011;61997;53.974;11.670;2023-05-10T12:28:38;2.85;;;2.10;;
73693;SDS011;61997;53.974;11.670;2023-05-10T12:31:06;2.58;;;2.00;;
73693;SDS011;61997;53.974;11.670;2023-05-10T12:33:35;2.95;;;2.25;;
73693;SDS011;61997;53.974;11.670;2023-05-10T12:36:04;3.28;;;2.40;;
73693;SDS011;61997;53.974;11.670;2023-05-10T12:41:08;3.08;;;2.50;;
73693;SDS011;61997;53.974;11.670;2023-05-10T12:43:37;2.95;;;2.40;;
73693;SDS011;61997;53.974;11.670;2023-05-10T12:46:06;3.40;;;2.63;;
73693;SDS011;61997;53.974;11.670;2023-05-10T12:48:32;3.67;;;2.30;;
73693;SDS011;61997;53.974;11.670;2023-05-10T12:50:59;2.90;;;2.58;;
73693;SDS011;61997;53.974;11.670;2023-05-10T12:53:26;3.65;;;2.30;;
73693;SDS011;61997;53.974;11.670;2023-05-10T12:55:51;3.05;;;2.22;;
73693;SDS011;61997;53.974;11.670;2023-05-10T12:58:17;3.17;;;2.20;;
73693;SDS011;61997;53.974;11.670;2023-05-10T13:00:42;3.05;;;2.10;;
73693;SDS011;61997;53.974;11.670;2023-05-10T13:03:09;3.20;;;2.33;;
73693;SDS011;61997;53.974;11.670;2023-05-10T13:05:36;2.92;;;2.22;;
73693;SDS011;61997;53.974;11.670;2023-05-10T13:08:02;3.58;;;2.38;;
73693;SDS011;61997;53.974;11.670;2023-05-10T13:10:30;3.40;;;2.22;;
73693;SDS011;61997;53.974;11.670;2023-05-10T13:12:56;4.15;;;2.50;;
73693;SDS011;61997;53.974;11.670;2023-05-10T13:15:22;2.95;;;2.10;;
73693;SDS011;61997;53.974;11.670;2023-05-10T13:17:48;2.85;;;2.25;;
73693;SDS011;61997;53.974;11.670;2023-05-10T13:20:14;3.38;;;2.50;;
73693;SDS011;61997;53.974;11.670;2023-05-10T13:22:42;2.97;;;2.50;;
73693;SDS011;61997;53.974;11.670;2023-05-10T13:25:08;3.65;;;2.25;;
73693;SDS011;61997;53.974;11.670;2023-05-10T13:27:34;2.50;;;2.30;;
73693;SDS011;61997;53.974;11.670;2023-05-10T13:29:59;2.92;;;2.35;;
73693;SDS011;61997;53.974;11.670;2023-05-10T13:32:25;2.97;;;2.35;;
73693;SDS011;61997;53.974;11.670;2023-05-10T13:34:51;2.90;;;2.35;;
73693;SDS011;61997;53.974;11.670;2023-05-10T13:37:17;2.55;;;2.13;;
73693;SDS011;61997;53.974;11.670;2023-05-10T13:39:46;3.20;;;2.05;;
73693;SDS011;61997;53.974;11.670;2023-05-10T13:42:12;3.80;;;2.45;;
73693;SDS011;61997;53.974;11.670;2023-05-10T13:44:38;2.53;;;2.20;;
73693;SDS011;61997;53.974;11.670;2023-05-10T13:47:04;2.80;;;2.58;;
73693;SDS011;61997;53.974;11.670;2023-05-10T13:49:29;3.85;;;2.78;;
73693;SDS011;61997;53.974;11.670;2023-05-10T13:51:55;3.60;;;2.45;;
73693;SDS011;61997;53.974;11.670;2023-05-10T13:54:20;3.33;;;2.33;;
73693;SDS011;61997;53.974;11.670;2023-05-10T13:56:47;3.08;;;2.45;;
73693;SDS011;61997;53.974;11.670;2023-05-10T13:59:13;2.97;;;2.47;;
73693;SDS011;61997;53.974;11.670;2023-05-10T14:01:39;4.55;;;2.40;;
73693;SDS011;61997;53.974;11.670;2023-05-10T14:04:10;3.20;;;2.45;;
73693;SDS011;61997;53.974;11.670;2023-05-10T14:06:36;3.78;;;2.63;;
73693;SDS011;61997;53.974;11.670;2023-05-10T14:09:02;3.40;;;2.65;;
73693;SDS011;61997;53.974;11.670;2023-05-10T14:11:28;4.03;;;2.55;;
73693;SDS011;61997;53.974;11.670;2023-05-10T14:13:54;3.22;;;2.38;;
73693;SDS011;61997;53.974;11.670;2023-05-10T14:16:19;3.70;;;2.63;;
73693;SDS011;61997;53.974;11.670;2023-05-10T14:18:45;4.78;;;2.83;;
73693;SDS011;61997;53.974;11.670;2023-05-10T14:21:11;4.47;;;2.95;;
73693;SDS011;61997;53.974;11.670;2023-05-10T14:23:37;4.10;;;2.58;;
73693;SDS011;61997;53.974;11.670;2023-05-10T14:26:02;3.92;;;2.72;;
73693;SDS011;61997;53.974;11.670;2023-05-10T14:28:28;3.78;;;2.33;;
73693;SDS011;61997;53.974;11.670;2023-05-10T14:30:54;4.15;;;2.80;;
73693;SDS011;61997;53.974;11.670;2023-05-10T14:33:19;4.90;;;2.80;;
73693;SDS011;61997;53.974;11.670;2023-05-10T14:35:46;4.22;;;2.90;;
73693;SDS011;61997;53.974;11.670;2023-05-10T14:38:11;3.63;;;2.72;;
73693;SDS011;61997;53.974;11.670;2023-05-10T14:40:37;3.00;;;2.67;;
73693;SDS011;61997;53.974;11.670;2023-05-10T14:43:03;6.18;;;3.30;;
73693;SDS011;61997;53.974;11.670;2023-05-10T14:45:28;5.35;;;3.28;;
73693;SDS011;61997;53.974;11.670;2023-05-10T14:47:53;3.60;;;2.47;;
73693;SDS011;61997;53.974;11.670;2023-05-10T14:50:19;5.43;;;2.85;;
73693;SDS011;61997;53.974;11.670;2023-05-10T14:52:44;7.75;;;2.88;;
73693;SDS011;61997;53.974;11.670;2023-05-10T14:55:10;5.00;;;3.00;;
73693;SDS011;61997;53.974;11.670;2023-05-10T14:57:35;3.92;;;2.42;;
73693;SDS011;61997;53.974;11.670;2023-05-10T15:00:01;5.15;;;2.88;;
73693;SDS011;61997;53.974;11.670;2023-05-10T15:02:27;3.58;;;2.80;;
73693;SDS011;61997;53.974;11.670;2023-05-10T15:04:52;5.30;;;3.00;;
73693;SDS011;61997;53.974;11.670;2023-05-10T15:07:18;4.25;;;3.25;;
73693;SDS011;61997;53.974;11.670;2023-05-10T15:09:44;5.63;;;2.92;;
73693;SDS011;61997;53.974;11.670;2023-05-10T15:12:09;7.10;;;2.75;;
73693;SDS011;61997;53.974;11.670;2023-05-10T15:14:35;6.65;;;2.78;;
73693;SDS011;61997;53.974;11.670;2023-05-10T15:17:01;4.35;;;2.95;;